createdAt,value
2022-09-28T00:02:13.042Z,5.53
2022-09-28T00:04:39.637Z,5.47
2022-09-28T00:07:06.140Z,5.57
2022-09-28T00:09:32.699Z,5.93
2022-09-28T00:11:59.864Z,6.30
2022-09-28T00:14:26.785Z,5.90
2022-09-28T00:16:53.528Z,5.50
2022-09-28T00:19:20.047Z,6.13
2022-09-28T00:21:46.676Z,5.90
2022-09-28T00:24:20.530Z,5.00
2022-09-28T00:26:54.146Z,5.23
2022-09-28T00:29:38.776Z,6.23
2022-09-28T00:32:13.643Z,6.30
2022-09-28T00:34:43.528Z,6.13
2022-09-28T00:37:10.229Z,5.60
2022-09-28T00:39:38.394Z,6.50
2022-09-28T00:42:12.158Z,6.47
2022-09-28T00:44:45.950Z,5.83
2022-09-28T00:47:37.985Z,6.93
2022-09-28T00:50:14.607Z,5.90
2022-09-28T00:52:50.108Z,6.00
2022-09-28T00:55:21.805Z,5.30
2022-09-28T00:57:53.079Z,6.20
2022-09-28T01:00:19.614Z,6.10
2022-09-28T01:02:47.786Z,5.40
2022-09-28T01:05:15.021Z,6.20
2022-09-28T01:07:44.180Z,5.90
2022-09-28T01:10:11.127Z,6.30
2022-09-28T01:12:38.006Z,6.53
2022-09-28T01:15:06.112Z,5.90
2022-09-28T01:18:06.091Z,5.63
2022-09-28T01:20:43.126Z,5.90
2022-09-28T01:23:27.556Z,5.03
2022-09-28T01:26:34.638Z,6.43
2022-09-28T01:29:08.359Z,5.60
2022-09-28T01:31:36.394Z,4.97
2022-09-28T01:34:10.300Z,5.43
2022-09-28T01:36:43.632Z,5.10
2022-09-28T01:39:16.263Z,5.30
2022-09-28T01:41:47.280Z,6.03
2022-09-28T01:44:18.063Z,6.07
2022-09-28T01:46:48.947Z,6.33
2022-09-28T01:49:20.750Z,7.13
2022-09-28T01:51:58.432Z,7.17
2022-09-28T01:54:31.531Z,6.47
2022-09-28T01:57:12.112Z,7.03
2022-09-28T01:59:44.227Z,6.87
2022-09-28T02:02:18.931Z,6.53
2022-09-28T02:05:13.678Z,7.20
2022-09-28T02:07:45.164Z,6.80
2022-09-28T02:10:41.248Z,7.00
2022-09-28T02:13:20.759Z,7.13
2022-09-28T02:15:57.063Z,7.30
2022-09-28T02:18:24.651Z,7.30
2022-09-28T02:21:03.879Z,7.87
2022-09-28T02:23:32.320Z,7.60
2022-09-28T02:26:06.455Z,7.47
2022-09-28T02:28:33.126Z,8.00
2022-09-28T02:31:00.726Z,8.30
2022-09-28T02:33:37.490Z,9.33
2022-09-28T02:36:05.090Z,8.80
2022-09-28T02:38:38.082Z,9.20
2022-09-28T02:41:15.104Z,8.13
2022-09-28T02:44:07.527Z,8.80
2022-09-28T02:46:45.870Z,9.20
2022-09-28T02:49:43.602Z,9.30
2022-09-28T02:52:47.721Z,8.67
2022-09-28T02:55:38.271Z,9.80
2022-09-28T02:58:35.447Z,10.20
2022-09-28T03:01:36.484Z,9.50
2022-09-28T03:04:21.750Z,10.17
2022-09-28T03:07:06.051Z,8.20
2022-09-28T03:09:39.756Z,10.13
2022-09-28T03:12:13.255Z,10.57
2022-09-28T03:14:40.197Z,11.47
2022-09-28T03:17:07.084Z,11.23
2022-09-28T03:19:34.758Z,10.47
2022-09-28T03:22:01.683Z,11.10
2022-09-28T03:24:28.508Z,11.57
2022-09-28T03:26:55.045Z,12.30
2022-09-28T03:29:22.575Z,13.30
2022-09-28T03:31:55.133Z,10.90
2022-09-28T03:34:21.960Z,9.40
2022-09-28T03:36:48.597Z,9.37
2022-09-28T03:39:15.434Z,7.90
2022-09-28T03:41:41.978Z,7.70
2022-09-28T03:44:08.534Z,6.50
2022-09-28T03:46:35.209Z,8.30
2022-09-28T03:49:05.990Z,7.97
2022-09-28T03:51:32.619Z,7.50
2022-09-28T03:53:59.163Z,7.80
2022-09-28T03:56:25.851Z,7.23
2022-09-28T03:58:52.471Z,7.90
2022-09-28T04:01:20.255Z,8.47
2022-09-28T04:03:47.736Z,9.17
2022-09-28T04:06:15.120Z,8.93
2022-09-28T04:08:43.005Z,8.40
2022-09-28T04:11:10.177Z,8.10
2022-09-28T04:13:37.225Z,9.33
2022-09-28T04:16:05.829Z,8.67
2022-09-28T04:18:34.512Z,7.63
2022-09-28T04:21:20.535Z,7.57
2022-09-28T04:23:53.334Z,8.40
2022-09-28T04:26:23.279Z,8.73
2022-09-28T04:29:09.389Z,17.20
2022-09-28T04:31:40.461Z,9.10
2022-09-28T04:34:07.066Z,8.07
2022-09-28T04:36:33.768Z,8.97
2022-09-28T04:39:01.068Z,9.90
2022-09-28T04:41:28.996Z,9.07
2022-09-28T04:43:56.040Z,8.90
2022-09-28T04:46:26.058Z,9.73
2022-09-28T04:49:05.351Z,9.70
2022-09-28T04:51:43.329Z,9.40
2022-09-28T04:54:09.856Z,12.03
2022-09-28T04:56:36.994Z,11.30
2022-09-28T04:59:04.103Z,9.77
2022-09-28T05:01:31.192Z,9.10
2022-09-28T05:04:22.376Z,8.57
2022-09-28T05:07:10.755Z,9.70
2022-09-28T05:09:38.710Z,9.60
2022-09-28T05:12:05.415Z,9.30
2022-09-28T05:14:32.213Z,8.80
2022-09-28T05:16:58.946Z,10.03
2022-09-28T05:19:25.990Z,10.37
2022-09-28T05:21:55.926Z,10.97
2022-09-28T05:24:22.485Z,9.70
2022-09-28T05:26:51.124Z,9.60
2022-09-28T05:29:18.735Z,9.70
2022-09-28T05:32:08.520Z,11.37
2022-09-28T05:34:39.075Z,23.53
2022-09-28T05:37:05.734Z,16.50
2022-09-28T05:39:32.226Z,16.23
2022-09-28T05:41:58.780Z,15.80
2022-09-28T05:44:26.066Z,18.10
2022-09-28T05:46:54.636Z,36.80
2022-09-28T05:49:21.158Z,11.37
2022-09-28T05:51:47.707Z,10.73
2022-09-28T05:54:14.624Z,10.67
2022-09-28T05:56:44.850Z,10.00
2022-09-28T05:59:12.210Z,10.60
2022-09-28T06:01:39.119Z,10.83
2022-09-28T06:04:08.971Z,10.50
2022-09-28T06:06:36.675Z,11.27
2022-09-28T06:09:03.422Z,11.60
2022-09-28T06:11:59.881Z,11.20
2022-09-28T06:14:34.876Z,12.00
2022-09-28T06:17:01.516Z,11.93
2022-09-28T06:19:28.396Z,10.77
2022-09-28T06:21:59.585Z,11.47
2022-09-28T06:24:26.491Z,11.70
2022-09-28T06:26:53.019Z,11.57
2022-09-28T06:29:20.905Z,9.97
2022-09-28T06:31:47.684Z,9.60
2022-09-28T06:34:14.921Z,12.23
2022-09-28T06:36:41.625Z,11.60
2022-09-28T06:39:08.839Z,10.00
2022-09-28T06:41:36.308Z,10.53
2022-09-28T06:44:12.924Z,9.80
2022-09-28T06:47:02.050Z,8.20
2022-09-28T06:49:55.333Z,7.87
2022-09-28T06:52:41.823Z,9.73
2022-09-28T06:55:18.655Z,7.33
2022-09-28T06:58:01.748Z,7.03
2022-09-28T07:00:31.047Z,6.70
2022-09-28T07:02:57.998Z,6.63
2022-09-28T07:05:43.283Z,5.50
2022-09-28T07:08:32.791Z,5.63
2022-09-28T07:11:20.262Z,5.93
2022-09-28T07:14:02.886Z,5.60
2022-09-28T07:16:52.049Z,16.10
2022-09-28T07:19:17.640Z,5.63
2022-09-28T07:21:46.137Z,5.70
2022-09-28T07:24:14.900Z,4.87
2022-09-28T07:27:00.340Z,5.13
2022-09-28T07:29:35.510Z,4.50
2022-09-28T07:35:26.653Z,4.40
2022-09-28T07:38:04.606Z,4.03
2022-09-28T07:40:52.172Z,4.00
2022-09-28T07:43:20.839Z,3.57
2022-09-28T07:45:52.470Z,4.10
2022-09-28T07:48:20.601Z,3.90
2022-09-28T07:51:09.198Z,3.30
2022-09-28T07:53:47.954Z,3.70
2022-09-28T07:56:40.108Z,4.30
2022-09-28T07:59:20.647Z,4.10
2022-09-28T08:02:06.034Z,3.83
2022-09-28T08:04:33.375Z,3.63
2022-09-28T08:07:00.323Z,3.50
2022-09-28T08:09:26.895Z,3.53
2022-09-28T08:12:13.457Z,3.40
2022-09-28T08:14:44.574Z,3.37
2022-09-28T08:17:32.404Z,3.10
2022-09-28T08:20:19.060Z,1.93
2022-09-28T08:22:46.201Z,2.57
2022-09-28T08:25:13.220Z,2.07
2022-09-28T08:27:39.779Z,1.80
2022-09-28T08:30:07.015Z,1.90
2022-09-28T08:32:52.355Z,1.50
2022-09-28T08:35:42.506Z,1.57
2022-09-28T08:38:15.598Z,1.33
2022-09-28T08:41:12.792Z,1.00
2022-09-28T08:44:13.822Z,1.20
2022-09-28T08:47:03.764Z,1.43
2022-09-28T08:50:03.481Z,1.37
2022-09-28T08:52:40.868Z,1.53
2022-09-28T08:55:32.818Z,1.60
2022-09-28T08:58:17.477Z,1.80
2022-09-28T09:00:52.227Z,2.17
2022-09-28T09:03:32.207Z,2.50
2022-09-28T09:06:35.118Z,1.47
2022-09-28T09:09:32.995Z,1.17
2022-09-28T09:12:13.135Z,13.37
2022-09-28T09:14:58.611Z,2.90
2022-09-28T09:18:03.368Z,1.90
2022-09-28T09:20:52.647Z,1.30
2022-09-28T09:23:55.927Z,1.40
2022-09-28T09:26:39.239Z,1.20
2022-09-28T09:29:36.348Z,1.50
2022-09-28T09:32:27.698Z,1.50
2022-09-28T09:35:00.669Z,1.40
2022-09-28T09:37:57.791Z,1.70
2022-09-28T09:41:14.834Z,1.80
2022-09-28T09:44:35.217Z,1.90
2022-09-28T09:47:33.808Z,1.27
2022-09-28T09:50:17.823Z,1.90
2022-09-28T09:52:57.330Z,2.00
2022-09-28T09:55:30.046Z,2.50
2022-09-28T09:58:24.186Z,2.90
2022-09-28T10:01:13.744Z,2.93
2022-09-28T10:04:21.319Z,2.73
2022-09-28T10:06:51.690Z,4.33
2022-09-28T10:09:34.733Z,2.43
2022-09-28T10:12:20.689Z,55.50
2022-09-28T10:14:47.305Z,5.20
2022-09-28T10:17:18.321Z,4.67
2022-09-28T10:20:16.204Z,3.57
2022-09-28T10:23:04.734Z,3.57
2022-09-28T10:25:36.192Z,3.60
2022-09-28T10:28:06.450Z,3.00
2022-09-28T10:30:44.543Z,3.37
2022-09-28T10:33:31.893Z,3.07
2022-09-28T10:36:01.836Z,3.30
2022-09-28T10:38:30.187Z,3.60
2022-09-28T10:41:13.454Z,3.53
2022-09-28T10:44:07.413Z,3.87
2022-09-28T10:46:39.746Z,3.97
2022-09-28T10:49:18.791Z,3.10
2022-09-28T10:51:56.116Z,4.50
2022-09-28T10:54:31.255Z,4.40
2022-09-28T10:56:59.910Z,4.07
2022-09-28T10:59:43.385Z,3.27
2022-09-28T11:02:37.478Z,3.70
2022-09-28T11:05:21.818Z,3.20
2022-09-28T11:07:49.245Z,2.20
2022-09-28T11:10:26.029Z,2.30
2022-09-28T11:12:57.753Z,2.43
2022-09-28T11:15:29.797Z,3.27
2022-09-28T11:17:56.969Z,2.50
2022-09-28T11:20:28.436Z,2.80
2022-09-28T11:23:01.350Z,3.50
2022-09-28T11:25:32.968Z,2.50
2022-09-28T11:28:04.872Z,2.17
2022-09-28T11:30:51.368Z,2.10
2022-09-28T11:33:35.082Z,1.87
2022-09-28T11:37:01.747Z,2.07
2022-09-28T11:40:07.020Z,2.20
2022-09-28T11:42:48.899Z,2.00
2022-09-28T11:45:27.528Z,1.60
2022-09-28T11:48:02.497Z,1.60
2022-09-28T11:50:42.625Z,2.00
2022-09-28T11:53:25.303Z,2.57
2022-09-28T11:56:08.705Z,2.67
2022-09-28T11:58:41.987Z,2.50
2022-09-28T12:01:19.135Z,2.60
2022-09-28T12:04:13.689Z,2.97
2022-09-28T12:06:55.666Z,2.57
2022-09-28T12:09:43.340Z,2.10
2022-09-28T12:12:32.458Z,2.07
2022-09-28T12:15:25.282Z,2.87
2022-09-28T12:18:34.306Z,2.43
2022-09-28T12:21:25.423Z,1.50
2022-09-28T12:23:58.007Z,1.40
2022-09-28T12:26:27.192Z,1.40
2022-09-28T12:29:01.807Z,1.70
2022-09-28T12:31:39.035Z,1.70
2022-09-28T12:34:06.837Z,1.67
2022-09-28T12:37:01.035Z,1.67
2022-09-28T12:39:58.021Z,1.80
2022-09-28T12:42:44.237Z,1.70
2022-09-28T12:46:06.726Z,1.80
2022-09-28T12:49:36.617Z,1.50
2022-09-28T12:51:53.930Z,1.63
2022-09-28T12:54:30.635Z,1.40
2022-09-28T12:57:21.524Z,1.80
2022-09-28T13:00:17.411Z,2.00
2022-09-28T13:03:12.254Z,1.50
2022-09-28T13:06:23.535Z,1.20
2022-09-28T13:09:19.770Z,0.90
2022-09-28T13:12:04.050Z,1.00
2022-09-28T13:14:50.155Z,0.87
2022-09-28T13:17:38.687Z,0.97
2022-09-28T13:20:27.510Z,0.90
2022-09-28T13:23:04.607Z,0.97
2022-09-28T13:25:36.084Z,1.20
2022-09-28T13:28:06.068Z,0.90
2022-09-28T13:30:38.449Z,0.90
2022-09-28T13:33:08.366Z,1.00
2022-09-28T13:35:35.336Z,1.03
2022-09-28T13:38:17.404Z,1.10
2022-09-28T13:41:06.084Z,0.80
2022-09-28T13:43:59.893Z,0.97
2022-09-28T13:46:26.768Z,1.00
2022-09-28T13:49:09.102Z,0.93
2022-09-28T13:51:58.986Z,1.23
2022-09-28T13:54:41.680Z,1.60
2022-09-28T13:57:19.654Z,1.20
2022-09-28T14:00:03.089Z,1.30
2022-09-28T14:02:46.986Z,1.30
2022-09-28T14:05:22.401Z,1.93
2022-09-28T14:07:58.372Z,1.50
2022-09-28T14:13:43.659Z,1.30
2022-09-28T14:16:22.442Z,1.23
2022-09-28T14:19:00.246Z,1.63
2022-09-28T14:21:58.104Z,1.30
2022-09-28T14:24:40.356Z,1.20
2022-09-28T14:27:28.155Z,1.10
2022-09-28T14:30:25.757Z,1.40
2022-09-28T14:32:57.866Z,2.80
2022-09-28T14:35:34.171Z,3.97
2022-09-28T14:38:25.122Z,1.70
2022-09-28T14:41:11.442Z,1.37
2022-09-28T14:43:43.817Z,1.40
2022-09-28T14:46:19.124Z,1.67
2022-09-28T14:48:54.685Z,1.80
2022-09-28T14:51:27.170Z,1.13
2022-09-28T14:54:02.668Z,1.40
2022-09-28T14:56:33.074Z,1.13
2022-09-28T14:59:00.622Z,1.30
2022-09-28T15:01:27.819Z,1.47
2022-09-28T15:03:57.029Z,1.77
2022-09-28T15:06:25.501Z,1.30
2022-09-28T15:08:52.094Z,0.90
2022-09-28T15:11:25.391Z,1.10
2022-09-28T15:14:06.227Z,0.80
2022-09-28T15:16:33.321Z,1.00
2022-09-28T15:19:28.086Z,1.30
2022-09-28T15:21:54.780Z,1.80
2022-09-28T15:24:33.446Z,2.00
2022-09-28T15:27:01.850Z,1.50
2022-09-28T15:29:31.351Z,18.70
2022-09-28T15:31:59.444Z,4.60
2022-09-28T15:34:45.688Z,8.57
2022-09-28T15:37:13.883Z,4.63
2022-09-28T15:39:40.577Z,16.50
2022-09-28T15:42:07.912Z,2.90
2022-09-28T15:44:37.111Z,2.13
2022-09-28T15:47:13.854Z,14.53
2022-09-28T15:49:42.967Z,7.50
2022-09-28T15:52:30.517Z,4.30
2022-09-28T15:54:58.270Z,4.20
2022-09-28T15:57:32.811Z,4.60
2022-09-28T16:00:00.727Z,3.17
2022-09-28T16:02:27.899Z,2.93
2022-09-28T16:05:01.990Z,2.10
2022-09-28T16:07:38.087Z,2.80
2022-09-28T16:10:30.855Z,3.80
2022-09-28T16:13:08.454Z,1.63
2022-09-28T16:15:37.686Z,1.67
2022-09-28T16:18:20.065Z,15.13
2022-09-28T16:20:50.129Z,2.17
2022-09-28T16:23:16.749Z,2.70
2022-09-28T16:25:51.659Z,3.73
2022-09-28T16:28:48.741Z,10.90
2022-09-28T16:31:15.373Z,11.47
2022-09-28T16:33:55.154Z,4.50
2022-09-28T16:36:23.064Z,2.40
2022-09-28T16:38:49.770Z,2.10
2022-09-28T16:41:20.885Z,2.90
2022-09-28T16:43:47.867Z,2.00
2022-09-28T16:46:17.426Z,2.07
2022-09-28T16:48:49.095Z,2.50
2022-09-28T16:51:18.090Z,2.73
2022-09-28T16:54:04.549Z,2.77
2022-09-28T16:56:33.191Z,2.73
2022-09-28T16:58:59.952Z,2.83
2022-09-28T17:01:27.035Z,2.90
2022-09-28T17:03:54.034Z,3.77
2022-09-28T17:06:24.852Z,5.77
2022-09-28T17:08:52.174Z,6.00
2022-09-28T17:11:24.174Z,4.50
2022-09-28T17:13:52.436Z,4.80
2022-09-28T17:16:32.594Z,4.90
2022-09-28T17:19:19.522Z,4.80
2022-09-28T17:21:48.174Z,5.10
2022-09-28T17:24:14.752Z,4.30
2022-09-28T17:26:44.331Z,4.07
2022-09-28T17:29:15.152Z,3.90
2022-09-28T17:31:43.688Z,3.10
2022-09-28T17:34:11.858Z,3.80
2022-09-28T17:36:40.634Z,3.70
2022-09-28T17:39:11.441Z,3.60
2022-09-28T17:41:38.036Z,2.70
2022-09-28T17:44:04.559Z,2.93
2022-09-28T17:46:33.518Z,2.13
2022-09-28T17:49:02.734Z,2.20
2022-09-28T17:51:32.254Z,2.00
2022-09-28T17:54:01.226Z,3.87
2022-09-28T17:56:32.265Z,4.30
2022-09-28T17:59:03.168Z,5.00
2022-09-28T18:01:34.589Z,6.70
2022-09-28T18:04:03.977Z,10.13
2022-09-28T18:06:33.777Z,8.70
2022-09-28T18:09:03.246Z,14.43
2022-09-28T18:11:31.372Z,10.67
2022-09-28T18:13:57.922Z,8.40
2022-09-28T18:16:27.761Z,6.17
2022-09-28T18:18:55.006Z,5.70
2022-09-28T18:21:21.693Z,4.40
2022-09-28T18:23:48.304Z,5.33
2022-09-28T18:26:16.685Z,5.40
2022-09-28T18:28:43.230Z,4.40
2022-09-28T18:31:12.409Z,4.27
2022-09-28T18:33:39.784Z,4.97
2022-09-28T18:36:07.435Z,3.23
2022-09-28T18:38:37.768Z,3.77
2022-09-28T18:41:16.186Z,3.43
2022-09-28T18:43:49.217Z,3.80
2022-09-28T18:46:18.092Z,3.63
2022-09-28T18:48:45.079Z,4.00
2022-09-28T18:51:12.510Z,3.97
2022-09-28T18:53:40.044Z,6.07
2022-09-28T18:56:13.217Z,5.57
2022-09-28T18:58:41.614Z,5.30
2022-09-28T19:01:28.867Z,5.70
2022-09-28T19:03:58.881Z,6.10
2022-09-28T19:06:25.445Z,5.53
2022-09-28T19:08:54.258Z,5.70
2022-09-28T19:11:21.227Z,6.40
2022-09-28T19:13:48.166Z,8.00
2022-09-28T19:16:18.545Z,7.90
2022-09-28T19:18:45.307Z,7.00
2022-09-28T19:21:15.099Z,7.70
2022-09-28T19:23:48.937Z,13.20
2022-09-28T19:26:20.306Z,18.77
2022-09-28T19:28:47.786Z,14.60
2022-09-28T19:31:14.875Z,14.40
2022-09-28T19:33:42.134Z,11.97
2022-09-28T19:36:12.769Z,10.97
2022-09-28T19:38:40.552Z,11.00
2022-09-28T19:41:39.323Z,11.43
2022-09-28T19:44:10.493Z,12.57
2022-09-28T19:46:38.839Z,13.50
2022-09-28T19:49:08.605Z,12.70
2022-09-28T19:51:37.154Z,11.00
2022-09-28T19:54:06.324Z,15.80
2022-09-28T19:56:34.222Z,16.60
2022-09-28T19:59:01.951Z,21.47
2022-09-28T20:01:30.508Z,17.73
2022-09-28T20:03:58.406Z,18.20
2022-09-28T20:06:26.160Z,17.73
2022-09-28T20:08:53.083Z,18.33
2022-09-28T20:11:20.773Z,16.37
2022-09-28T20:13:48.641Z,18.57
2022-09-28T20:16:18.382Z,17.17
2022-09-28T20:18:52.291Z,16.83
2022-09-28T20:21:24.939Z,17.33
2022-09-28T20:23:59.086Z,16.30
2022-09-28T20:26:26.886Z,15.63
2022-09-28T20:28:53.995Z,15.50
2022-09-28T20:31:23.721Z,14.50
2022-09-28T20:33:51.447Z,22.23
2022-09-28T20:36:21.187Z,23.57
2022-09-28T20:38:53.080Z,19.57
2022-09-28T20:41:22.079Z,16.37
2022-09-28T20:43:54.417Z,16.87
2022-09-28T20:46:22.039Z,13.80
2022-09-28T20:48:53.948Z,15.13
2022-09-28T20:51:21.580Z,13.97
2022-09-28T20:53:52.872Z,13.37
2022-09-28T20:56:38.646Z,12.17
2022-09-28T20:59:07.609Z,13.33
2022-09-28T21:01:34.769Z,12.60
2022-09-28T21:04:03.618Z,13.10
2022-09-28T21:06:32.985Z,12.93
2022-09-28T21:08:59.903Z,12.53
2022-09-28T21:11:28.006Z,11.60
2022-09-28T21:14:00.151Z,11.87
2022-09-28T21:16:29.518Z,10.90
2022-09-28T21:18:56.122Z,11.57
2022-09-28T21:21:23.732Z,11.17
2022-09-28T21:23:54.497Z,10.50
2022-09-28T21:26:25.840Z,10.40
2022-09-28T21:29:01.147Z,11.20
2022-09-28T21:31:31.309Z,10.50
2022-09-28T21:33:58.897Z,11.30
2022-09-28T21:36:25.931Z,10.70
2022-09-28T21:38:54.116Z,10.30
2022-09-28T21:41:24.241Z,11.50
2022-09-28T21:43:51.469Z,9.73
2022-09-28T21:46:18.156Z,9.20
2022-09-28T21:48:45.360Z,9.87
2022-09-28T21:51:15.035Z,8.93
2022-09-28T21:53:42.547Z,8.73
2022-09-28T21:56:11.796Z,10.53
2022-09-28T21:58:40.058Z,10.00
2022-09-28T22:01:08.168Z,9.80
2022-09-28T22:03:36.545Z,11.07
2022-09-28T22:06:04.432Z,10.47
2022-09-28T22:08:31.315Z,11.40
2022-09-28T22:11:03.667Z,10.47
2022-09-28T22:13:32.365Z,11.37
2022-09-28T22:15:59.276Z,12.07
2022-09-28T22:18:29.538Z,11.40
2022-09-28T22:21:00.804Z,11.27
2022-09-28T22:23:28.375Z,10.30
2022-09-28T22:26:11.281Z,11.00
2022-09-28T22:28:39.054Z,10.20
2022-09-28T22:31:06.120Z,10.27
2022-09-28T22:33:34.274Z,9.83
2022-09-28T22:36:00.943Z,8.50
2022-09-28T22:38:28.059Z,9.17
2022-09-28T22:40:56.118Z,7.93
2022-09-28T22:43:24.855Z,8.00
2022-09-28T22:46:05.266Z,7.50
2022-09-28T22:48:32.875Z,9.53
2022-09-28T22:50:59.659Z,10.43
2022-09-28T22:53:26.579Z,9.37
2022-09-28T22:55:53.253Z,9.20
2022-09-28T22:58:20.038Z,11.03
2022-09-28T23:00:46.638Z,10.80
2022-09-28T23:03:13.280Z,9.30
2022-09-28T23:05:40.332Z,9.60
2022-09-28T23:08:07.023Z,9.80
2022-09-28T23:10:33.641Z,9.77
2022-09-28T23:13:00.183Z,11.50
2022-09-28T23:15:28.215Z,9.47
2022-09-28T23:17:55.439Z,9.00
2022-09-28T23:20:22.124Z,8.93
2022-09-28T23:22:49.251Z,8.73
2022-09-28T23:25:17.723Z,7.90
2022-09-28T23:27:47.778Z,7.90
2022-09-28T23:30:16.265Z,8.37
2022-09-28T23:32:43.111Z,9.17
2022-09-28T23:35:10.519Z,8.33
2022-09-28T23:37:37.674Z,7.90
2022-09-28T23:40:05.880Z,9.93
2022-09-28T23:42:34.661Z,7.03
2022-09-28T23:45:01.261Z,8.00
2022-09-28T23:47:27.882Z,8.63
2022-09-28T23:49:54.397Z,7.27
2022-09-28T23:52:20.956Z,8.83
2022-09-28T23:54:47.531Z,7.80
2022-09-28T23:57:14.475Z,7.97
2022-09-28T23:59:41.036Z,7.40
